Observation data for Brownfield on 04/24/2019      Previous  Date  Next       Current Mesonet Observations  Soil Data  Daily Summary Page  Observations in Plain Language
KBWS 240500Z 01009KT 12/10 A3002 RMK A01 T01190099  RH  089%=      5-min Rain = 0
KBWS 240505Z 02010KT 12/10 A3001 RMK A01 T01180098  RH  089%=      5-min Rain = 0
KBWS 240510Z 01011KT 12/10 A30 RMK A01 T01170097  RH  089%=      5-min Rain = 0
KBWS 240515Z 02011KT 12/10 A30 RMK A01 T01160095  RH  088%=      5-min Rain = 0
KBWS 240520Z 02012KT 12/09 A30 RMK A01 T01160094  RH  088%=      5-min Rain = 0
KBWS 240525Z 02012KT 12/09 A30 RMK A01 T01150093  RH  088%=      5-min Rain = 0
KBWS 240530Z 01011KT 11/09 A30 RMK A01 T01140093  RH  088%=      5-min Rain = 0
KBWS 240535Z 02010KT 11/09 A30 RMK A01 T01130092  RH  088%=      5-min Rain = 0
KBWS 240540Z 02011KT 11/09 A2999 RMK A01 T01120091  RH  088%=      5-min Rain = 0
KBWS 240545Z 02011KT 11/09 A2999 RMK A01 T01120091  RH  088%=      5-min Rain = 0
KBWS 240550Z 01009KT 11/09 A30 RMK A01 T01110090  RH  088%=      5-min Rain = 0
KBWS 240555Z 01008KT 11/09 A30 RMK A01 T01100089  RH  088%=      5-min Rain = 0
KBWS 240600Z 01008KT 11/09 A30 RMK A01 T01090088  RH  088%=      5-min Rain = 0
KBWS 240605Z 02008KT 11/09 A30 RMK A01 T01080087  RH  088%=      5-min Rain = 0
KBWS 240610Z 02009KT 11/09 A30 RMK A01 T01080086  RH  087%=      5-min Rain = 0
KBWS 240615Z 02009KT 11/09 A30 RMK A01 T01080085  RH  087%=      5-min Rain = 0
KBWS 240620Z 02009KT 11/08 A30 RMK A01 T01070084  RH  087%=      5-min Rain = 0
KBWS 240625Z 02008KT 11/08 A3001 RMK A01 T01060083  RH  087%=      5-min Rain = 0
KBWS 240630Z 02008KT 11/08 A3001 RMK A01 T01060083  RH  087%=      5-min Rain = 0
KBWS 240635Z 02008KT 11/08 A3001 RMK A01 T01050083  RH  087%=      5-min Rain = 0
KBWS 240640Z 02009KT 11/08 A3001 RMK A01 T01050083  RH  087%=      5-min Rain = 0
KBWS 240645Z 03008KT 10/08 A3001 RMK A01 T01030082  RH  088%=      5-min Rain = 0
KBWS 240650Z 02009KT 10/08 A3001 RMK A01 T01030082  RH  088%=      5-min Rain = 0
KBWS 240655Z 02008KT 10/08 A3002 RMK A01 T01040081  RH  087%=      5-min Rain = 0
KBWS 240700Z 03008KT 10/08 A3001 RMK A01 T01040081  RH  087%=      5-min Rain = 0
KBWS 240705Z 03007KT 10/08 A3002 RMK A01 T01030081  RH  088%=      5-min Rain = 0
KBWS 240710Z 03007KT 10/08 A3002 RMK A01 T01020081  RH  088%=      5-min Rain = 0
KBWS 240715Z 03006KT 10/08 A3002 RMK A01 T01020082  RH  089%=      5-min Rain = 0
KBWS 240720Z 04006KT 10/08 A3002 RMK A01 T01020082  RH  089%=      5-min Rain = 0
KBWS 240725Z 03005KT 10/08 A3002 RMK A01 T01020082  RH  088%=      5-min Rain = 0
KBWS 240730Z 03005KT 10/08 A3002 RMK A01 T01020081  RH  088%=      5-min Rain = 0
KBWS 240735Z 02006KT 10/08 A3002 RMK A01 T01020081  RH  088%=      5-min Rain = 0
KBWS 240740Z 02005KT 10/08 A3002 RMK A01 T01020081  RH  088%=      5-min Rain = 0
KBWS 240745Z 03005KT 10/08 A3002 RMK A01 T01010081  RH  089%=      5-min Rain = 0
KBWS 240750Z 03005KT 10/08 A3001 RMK A01 T00990080  RH  090%=      5-min Rain = 0
KBWS 240755Z 02006KT 10/08 A3001 RMK A01 T00970080  RH  090%=      5-min Rain = 0
KBWS 240800Z 03005KT 10/08 A3001 RMK A01 T00970080  RH  090%=      5-min Rain = 0
KBWS 240805Z 02005KT 10/08 A3001 RMK A01 T00970080  RH  090%=      5-min Rain = 0
KBWS 240810Z 02005KT 10/08 A30 RMK A01 T00970080  RH  090%=      5-min Rain = 0
KBWS 240815Z 01006KT 10/08 A30 RMK A01 T00970080  RH  091%=      5-min Rain = 0
KBWS 240820Z 35005KT 10/08 A30 RMK A01 T00960079  RH  091%=      5-min Rain = 0
KBWS 240825Z 35003KT 09/08 A30 RMK A01 T00940078  RH  091%=      5-min Rain = 0
KBWS 240830Z 35005KT 09/08 A30 RMK A01 T00930078  RH  091%=      5-min Rain = 0
KBWS 240835Z 35006KT 09/08 A30 RMK A01 T00930078  RH  091%=      5-min Rain = 0
KBWS 240840Z 35006KT 09/08 A30 RMK A01 T00930077  RH  091%=      5-min Rain = 0
KBWS 240845Z 34006KT 09/08 A30 RMK A01 T00940077  RH  090%=      5-min Rain = 0
KBWS 240850Z 34005KT 09/08 A30 RMK A01 T00930076  RH  091%=      5-min Rain = 0
KBWS 240855Z 33007KT 09/08 A30 RMK A01 T00910076  RH  092%=      5-min Rain = 0
KBWS 240900Z 33007KT 09/08 A30 RMK A01 T00900076  RH  092%=      5-min Rain = 0
KBWS 240905Z 34005KT 09/08 A3001 RMK A01 T00900075  RH  092%=      5-min Rain = 0
KBWS 240910Z 35003KT 09/07 A3002 RMK A01 T00890074  RH  092%=      5-min Rain = 0
KBWS 240915Z 35004KT 09/07 A3002 RMK A01 T00880074  RH  092%=      5-min Rain = 0
KBWS 240920Z 35004KT 09/07 A3002 RMK A01 T00880074  RH  092%=      5-min Rain = 0
KBWS 240925Z 36004KT 09/07 A3002 RMK A01 T00880074  RH  092%=      5-min Rain = 0
KBWS 240930Z 01004KT 09/07 A3002 RMK A01 T00880074  RH  092%=      5-min Rain = 0
KBWS 240935Z 01006KT 09/07 A3001 RMK A01 T00890073  RH  091%=      5-min Rain = 0
KBWS 240940Z 00006KT 09/07 A3001 RMK A01 T00880073  RH  091%=      5-min Rain = 0
KBWS 240945Z 00006KT 09/07 A30 RMK A01 T00880072  RH  091%=      5-min Rain = 0
KBWS 240950Z 01005KT 09/07 A30 RMK A01 T00870071  RH  091%=      5-min Rain = 0
KBWS 240955Z 35006KT 09/07 A30 RMK A01 T00870071  RH  091%=      5-min Rain = 0
KBWS 241000Z 00007KT 09/07 A30 RMK A01 T00870071  RH  091%=      5-min Rain = 0
KBWS 241005Z 01007KT 09/07 A30 RMK A01 T00870070  RH  090%=      5-min Rain = 0
KBWS 241010Z 00006KT 09/07 A2999 RMK A01 T00880069  RH  089%=      5-min Rain = 0
KBWS 241015Z 00006KT 09/07 A2999 RMK A01 T00880069  RH  089%=      5-min Rain = 0
KBWS 241020Z 01005KT 09/07 A2999 RMK A01 T00870069  RH  089%=      5-min Rain = 0
KBWS 241025Z 02007KT 09/07 A2998 RMK A01 T00870068  RH  089%=      5-min Rain = 0
KBWS 241030Z 01008KT 09/07 A2998 RMK A01 T00880069  RH  089%=      5-min Rain = 0
KBWS 241035Z 02007KT 09/07 A2998 RMK A01 T00870069  RH  089%=      5-min Rain = 0
KBWS 241040Z 03007KT 09/07 A2997 RMK A01 T00870068  RH  089%=      5-min Rain = 0
KBWS 241045Z 03006KT 09/07 A2998 RMK A01 T00860068  RH  090%=      5-min Rain = 0
KBWS 241050Z 03005KT 08/07 A2998 RMK A01 T00840067  RH  090%=      5-min Rain = 0
KBWS 241055Z 03004KT 08/07 A2998 RMK A01 T00830067  RH  091%=      5-min Rain = 0
KBWS 241100Z 04004KT 08/07 A2998 RMK A01 T00840068  RH  091%=      5-min Rain = 0
KBWS 241105Z 04005KT 09/07 A2999 RMK A01 T00850068  RH  090%=      5-min Rain = 0
KBWS 241110Z 04003KT 09/07 A2999 RMK A01 T00850068  RH  091%=      5-min Rain = 0
KBWS 241115Z 03003KT 09/07 A2999 RMK A01 T00860069  RH  091%=      5-min Rain = 0
KBWS 241120Z 00004KT 09/07 A2999 RMK A01 T00860069  RH  090%=      5-min Rain = 0
KBWS 241125Z 00005KT 09/07 A2999 RMK A01 T00860069  RH  090%=      5-min Rain = 0
KBWS 241130Z 01005KT 09/07 A2999 RMK A01 T00860069  RH  090%=      5-min Rain = 0
KBWS 241135Z 02004KT 09/07 A30 RMK A01 T00850069  RH  091%=      5-min Rain = 0
KBWS 241140Z 01005KT 09/07 A2999 RMK A01 T00850069  RH  091%=      5-min Rain = 0
KBWS 241145Z 00005KT 08/07 A2999 RMK A01 T00840068  RH  091%=      5-min Rain = 0
KBWS 241150Z 35004KT 08/07 A2999 RMK A01 T00830067  RH  091%=      5-min Rain = 0
KBWS 241155Z 36004KT 08/07 A2999 RMK A01 T00840068  RH  091%=      5-min Rain = 0
KBWS 241200Z 01005KT 08/07 A2998 RMK A01 T00840068  RH  091%=      5-min Rain = 0
KBWS 241205Z 02005KT 09/07 A2998 RMK A01 T00850068  RH  090%=      5-min Rain = 0
KBWS 241210Z 01006KT 09/07 A2998 RMK A01 T00860068  RH  089%=      5-min Rain = 0
KBWS 241215Z 00004KT 09/07 A2999 RMK A01 T00850067  RH  090%=      5-min Rain = 0
KBWS 241220Z 01005KT 08/07 A30 RMK A01 T00840067  RH  090%=      5-min Rain = 0
KBWS 241225Z 34005KT 08/07 A30 RMK A01 T00840068  RH  091%=      5-min Rain = 0
KBWS 241230Z 35005KT 08/07 A2999 RMK A01 T00830066  RH  091%=      5-min Rain = 0
KBWS 241235Z 34005KT 08/07 A2999 RMK A01 T00830066  RH  090%=      5-min Rain = 0
KBWS 241240Z 34005KT 08/07 A2999 RMK A01 T00820066  RH  091%=      5-min Rain = 0
KBWS 241245Z 01004KT 08/07 A30 RMK A01 T00820065  RH  090%=      5-min Rain = 0
KBWS 241250Z 05003KT 08/07 A30 RMK A01 T00840065  RH  089%=      5-min Rain = 0
KBWS 241255Z 04002KT 09/07 A30 RMK A01 T00850065  RH  089%=      5-min Rain = 0
KBWS 241300Z 06002KT 09/07 A30 RMK A01 T00850065  RH  088%=      5-min Rain = 0
KBWS 241305Z 01002KT 09/07 A30 RMK A01 T00870066  RH  088%=      5-min Rain = 0
KBWS 241310Z 34004KT 09/07 A30 RMK A01 T00880067  RH  088%=      5-min Rain = 0
KBWS 241315Z 33005KT 09/07 A30 RMK A01 T00890069  RH  088%=      5-min Rain = 0
KBWS 241320Z 33006KT 09/07 A30 RMK A01 T00930071  RH  087%=      5-min Rain = 0
KBWS 241325Z 34006KT 10/07 A2999 RMK A01 T00970072  RH  086%=      5-min Rain = 0
KBWS 241330Z 34005KT 10/08 A2999 RMK A01 T01000075  RH  086%=      5-min Rain = 0
KBWS 241335Z 33006KT 10/08 A2999 RMK A01 T01000076  RH  086%=      5-min Rain = 0
KBWS 241340Z 33008KT 10/08 A2998 RMK A01 T01000075  RH  086%=      5-min Rain = 0
KBWS 241345Z 34008KT 10/08 A2998 RMK A01 T01020077  RH  086%=      5-min Rain = 0
KBWS 241350Z 34007KT 11/08 A2998 RMK A01 T01050079  RH  085%=      5-min Rain = 0
KBWS 241355Z 33009KT 11/08 A2997 RMK A01 T01050078  RH  085%=      5-min Rain = 0
KBWS 241400Z 34007KT 11/08 A2997 RMK A01 T01070081  RH  085%=      5-min Rain = 0
KBWS 241405Z 34006KT 11/08 A2997 RMK A01 T01090082  RH  084%=      5-min Rain = 0
KBWS 241410Z 35007KT 11/08 A2997 RMK A01 T01090080  RH  084%=      5-min Rain = 0
KBWS 241415Z 35006KT 11/08 A2998 RMK A01 T01100080  RH  083%=      5-min Rain = 0
KBWS 241420Z 35006KT 11/08 A2999 RMK A01 T01090080  RH  083%=      5-min Rain = 0
KBWS 241425Z 02005KT 11/08 A2999 RMK A01 T01110082  RH  083%=      5-min Rain = 0
KBWS 241430Z 01005KT 11/08 A2999 RMK A01 T01120081  RH  083%=      5-min Rain = 0
KBWS 241435Z 36006KT 11/08 A2999 RMK A01 T01140082  RH  082%=      5-min Rain = 0
KBWS 241440Z 00005KT 12/08 A2999 RMK A01 T01150080  RH  080%=      5-min Rain = 0
KBWS 241445Z 00004KT 12/08 A30 RMK A01 T01160080  RH  080%=      5-min Rain = 0
KBWS 241450Z 36004KT 12/08 A30 RMK A01 T01180079  RH  078%=      5-min Rain = 0
KBWS 241455Z 35004KT 12/08 A30 RMK A01 T01190078  RH  077%=      5-min Rain = 0
KBWS 241500Z 36003KT 12/08 A30 RMK A01 T01190078  RH  077%=      5-min Rain = 0
KBWS 241505Z 02002KT 12/08 A3001 RMK A01 T01220078  RH  076%=      5-min Rain = 0
KBWS 241510Z 05001KT 12/08 A3002 RMK A01 T01230075  RH  074%=      5-min Rain = 0
KBWS 241515Z 04001KT 13/08 A3002 RMK A01 T01260079  RH  074%=      5-min Rain = 0
KBWS 241520Z 21001KT 13/08 A3003 RMK A01 T01290081  RH  074%=      5-min Rain = 0
KBWS 241525Z 25002KT 13/08 A3002 RMK A01 T01280078  RH  073%=      5-min Rain = 0
KBWS 241530Z 27002KT 13/08 A3002 RMK A01 T01290081  RH  074%=      5-min Rain = 0
KBWS 241535Z 26003KT 13/08 A3002 RMK A01 T01310083  RH  074%=      5-min Rain = 0
KBWS 241540Z 28004KT 13/08 A3002 RMK A01 T01320084  RH  074%=      5-min Rain = 0
KBWS 241545Z 27003KT 13/08 A3003 RMK A01 T01330083  RH  073%=      5-min Rain = 0
KBWS 241550Z 29003KT 14/09 A3002 RMK A01 T01360086  RH  073%=      5-min Rain = 0
KBWS 241555Z 29004KT 14/08 A3002 RMK A01 T01370083  RH  071%=      5-min Rain = 0
KBWS 241600Z 28003KT 14/08 A3003 RMK A01 T01370080  RH  069%=      5-min Rain = 0
KBWS 241605Z 30004KT 14/08 A3003 RMK A01 T01380083  RH  071%=      5-min Rain = 0
KBWS 241610Z 28001KT 14/08 A3003 RMK A01 T01390083  RH  070%=      5-min Rain = 0
KBWS 241615Z 30002KT 14/08 A3003 RMK A01 T01420084  RH  069%=      5-min Rain = 0
KBWS 241620Z 30002KT 14/08 A3003 RMK A01 T01440084  RH  068%=      5-min Rain = 0
KBWS 241625Z 23002KT 15/09 A3003 RMK A01 T01480089  RH  069%=      5-min Rain = 0
KBWS 241630Z 21002KT 15/08 A3002 RMK A01 T01460083  RH  067%=      5-min Rain = 0
KBWS 241635Z 24003KT 15/08 A3002 RMK A01 T01470083  RH  067%=      5-min Rain = 0
KBWS 241640Z 30002KT 15/09 A3002 RMK A01 T01510087  RH  067%=      5-min Rain = 0
KBWS 241645Z 30004KT 15/08 A3002 RMK A01 T01480084  RH  066%=      5-min Rain = 0
KBWS 241650Z 33003KT 15/08 A3001 RMK A01 T01480081  RH  065%=      5-min Rain = 0
KBWS 241655Z 28004KT 15/09 A3001 RMK A01 T01480086  RH  067%=      5-min Rain = 0
KBWS 241700Z 27004KT 15/08 A3001 RMK A01 T01510084  RH  065%=      5-min Rain = 0
KBWS 241705Z 29004KT 15/08 A3001 RMK A01 T01520083  RH  065%=      5-min Rain = 0
KBWS 241710Z 27003KT 16/08 A3001 RMK A01 T01550083  RH  063%=      5-min Rain = 0
KBWS 241715Z 24003KT 15/08 A3001 RMK A01 T01540080  RH  062%=      5-min Rain = 0
KBWS 241720Z 30003G10KT 16/08 A30 RMK A01 T01580081  RH  061%=      5-min Rain = 0
KBWS 241725Z 33005KT 16/08 A30 RMK A01 T01590084  RH  062%=      5-min Rain = 0
KBWS 241730Z 33004KT 15/08 A30 RMK A01 T01540078  RH  061%=      5-min Rain = 0
KBWS 241735Z 30003KT 16/08 A30 RMK A01 T01570076  RH  059%=      5-min Rain = 0
KBWS 241740Z 33005KT 16/08 A30 RMK A01 T01580077  RH  059%=      5-min Rain = 0
KBWS 241745Z 30004KT 16/08 A30 RMK A01 T01620078  RH  058%=      5-min Rain = 0
KBWS 241750Z 29003KT 16/08 A30 RMK A01 T01630080  RH  059%=      5-min Rain = 0
KBWS 241755Z 23001KT 17/08 A2999 RMK A01 T01670083  RH  058%=      5-min Rain = 0
KBWS 241800Z 24004KT 17/08 A2999 RMK A01 T01670079  RH  057%=      5-min Rain = 0
KBWS 241805Z 31004KT 16/08 A2999 RMK A01 T01640082  RH  059%=      5-min Rain = 0
KBWS 241810Z 31002G7KT 17/08 A2999 RMK A01 T01680083  RH  058%=      5-min Rain = 0
KBWS 241815Z 29005KT 17/09 A2999 RMK A01 T01680086  RH  059%=      5-min Rain = 0
KBWS 241820Z 31004KT 17/08 A2999 RMK A01 T01680082  RH  057%=      5-min Rain = 0
KBWS 241825Z 28005KT 17/08 A2999 RMK A01 T01690084  RH  058%=      5-min Rain = 0
KBWS 241830Z 25003KT 17/08 A2998 RMK A01 T01720083  RH  057%=      5-min Rain = 0
KBWS 241835Z 32003KT 17/08 A2998 RMK A01 T01710080  RH  056%=      5-min Rain = 0
KBWS 241840Z 35002KT 16/08 A2998 RMK A01 T01640077  RH  057%=      5-min Rain = 0
KBWS 241845Z 28002KT 16/08 A2998 RMK A01 T01640079  RH  058%=      5-min Rain = 0
KBWS 241850Z 35005KT 17/08 A2998 RMK A01 T01660079  RH  057%=      5-min Rain = 0
KBWS 241855Z 02004KT 17/07 A2998 RMK A01 T01650073  RH  055%=      5-min Rain = 0
KBWS 241900Z 00003KT 17/08 A2997 RMK A01 T01710076  RH  054%=      5-min Rain = 0
KBWS 241905Z 34003KT 18/08 A2997 RMK A01 T01760077  RH  053%=      5-min Rain = 0
KBWS 241910Z 02004KT 18/08 A2997 RMK A01 T01750075  RH  053%=      5-min Rain = 0
KBWS 241915Z 36007KT 18/08 A2997 RMK A01 T01770081  RH  054%=      5-min Rain = 0
KBWS 241920Z 34004KT 18/07 A2997 RMK A01 T01750074  RH  052%=      5-min Rain = 0
KBWS 241925Z 01005KT 18/08 A2996 RMK A01 T01770080  RH  054%=      5-min Rain = 0
KBWS 241930Z 34005G10KT 18/08 A2996 RMK A01 T01780081  RH  054%=      5-min Rain = 0
KBWS 241935Z 30005KT 18/08 A2996 RMK A01 T01770078  RH  053%=      5-min Rain = 0
KBWS 241940Z 36004KT 18/08 A2996 RMK A01 T01750080  RH  054%=      5-min Rain = 0
KBWS 241945Z 31006KT 18/08 A2996 RMK A01 T01790084  RH  055%=      5-min Rain = 0
KBWS 241950Z 34004KT 18/08 A2996 RMK A01 T01790080  RH  053%=      5-min Rain = 0
KBWS 241955Z 29002KT 18/08 A2996 RMK A01 T01840079  RH  051%=      5-min Rain = 0
KBWS 242000Z 33004KT 18/07 A2996 RMK A01 T01820074  RH  050%=      5-min Rain = 0
KBWS 242005Z 25002KT 18/08 A2996 RMK A01 T01820077  RH  051%=      5-min Rain = 0
KBWS 242010Z 21003KT 19/08 A2996 RMK A01 T01860079  RH  050%=      5-min Rain = 0
KBWS 242015Z 17004KT 18/08 A2996 RMK A01 T01820076  RH  050%=      5-min Rain = 0
KBWS 242020Z 15003KT 18/08 A2996 RMK A01 T01830075  RH  050%=      5-min Rain = 0
KBWS 242025Z 15003KT 18/07 A2996 RMK A01 T01820074  RH  050%=      5-min Rain = 0
KBWS 242030Z 20002KT 18/08 A2995 RMK A01 T01820079  RH  052%=      5-min Rain = 0
KBWS 242035Z 19003KT 18/08 A2995 RMK A01 T01840076  RH  050%=      5-min Rain = 0
KBWS 242040Z 21002KT 18/08 A2995 RMK A01 T01840078  RH  050%=      5-min Rain = 0
KBWS 242045Z 19002KT 19/08 A2995 RMK A01 T01860077  RH  050%=      5-min Rain = 0
KBWS 242050Z 17002KT 18/07 A2994 RMK A01 T01840072  RH  049%=      5-min Rain = 0
KBWS 242055Z 31003KT 18/08 A2994 RMK A01 T01840076  RH  050%=      5-min Rain = 0
KBWS 242100Z 34003KT 18/07 A2994 RMK A01 T01810073  RH  050%=      5-min Rain = 0
KBWS 242105Z 25004KT 18/08 A2994 RMK A01 T01840079  RH  051%=      5-min Rain = 0
KBWS 242110Z 22002KT 18/07 A2993 RMK A01 T01830074  RH  050%=      5-min Rain = 0
KBWS 242115Z 28001KT 19/08 A2993 RMK A01 T01870075  RH  049%=      5-min Rain = 0
KBWS 242120Z 25002KT 19/07 A2993 RMK A01 T01860074  RH  049%=      5-min Rain = 0
KBWS 242125Z 24002KT 19/07 A2992 RMK A01 T01860073  RH  048%=      5-min Rain = 0
KBWS 242130Z 27001KT 19/08 A2992 RMK A01 T01880078  RH  049%=      5-min Rain = 0
KBWS 242135Z 23001KT 19/08 A2992 RMK A01 T01900075  RH  048%=      5-min Rain = 0
KBWS 242140Z 29003KT 19/07 A2992 RMK A01 T01910074  RH  047%=      5-min Rain = 0
KBWS 242145Z 28003KT 19/08 A2992 RMK A01 T01890075  RH  048%=      5-min Rain = 0
KBWS 242150Z 19002KT 19/07 A2991 RMK A01 T01900074  RH  048%=      5-min Rain = 0
KBWS 242155Z 26001G6KT 19/07 A2991 RMK A01 T01910074  RH  047%=      5-min Rain = 0
KBWS 242200Z 21005KT 19/07 A2991 RMK A01 T01890073  RH  048%=      5-min Rain = 0
KBWS 242205Z 20003KT 19/07 A2991 RMK A01 T01880070  RH  047%=      5-min Rain = 0
KBWS 242210Z 21003KT 19/07 A299 RMK A01 T01930073  RH  047%=      5-min Rain = 0
KBWS 242215Z 25004KT 20/07 A299 RMK A01 T01950073  RH  046%=      5-min Rain = 0
KBWS 242220Z 25002KT 20/07 A299 RMK A01 T01980071  RH  044%=      5-min Rain = 0
KBWS 242225Z 23004G9KT 19/07 A299 RMK A01 T01940070  RH  045%=      5-min Rain = 0
KBWS 242230Z 29005G10KT 19/07 A299 RMK A01 T01900071  RH  046%=      5-min Rain = 0
KBWS 242235Z 26006KT 19/08 A299 RMK A01 T01890075  RH  048%=      5-min Rain = 0
KBWS 242240Z 25004KT 19/07 A299 RMK A01 T01880070  RH  047%=      5-min Rain = 0
KBWS 242245Z 28003KT 19/07 A299 RMK A01 T01880073  RH  048%=      5-min Rain = 0
KBWS 242250Z 29003KT 19/07 A299 RMK A01 T01890074  RH  048%=      5-min Rain = 0
KBWS 242255Z 33002KT 19/07 A2989 RMK A01 T01890073  RH  048%=      5-min Rain = 0
KBWS 242300Z 23003KT 19/07 A2989 RMK A01 T01930073  RH  046%=      5-min Rain = 0
KBWS 242305Z 25007KT 20/07 A2989 RMK A01 T01950074  RH  046%=      5-min Rain = 0
KBWS 242310Z 26004KT 19/07 A2989 RMK A01 T01940070  RH  045%=      5-min Rain = 0
KBWS 242315Z 26004KT 20/07 A2989 RMK A01 T01980074  RH  045%=      5-min Rain = 0
KBWS 242320Z 29004KT 20/07 A2989 RMK A01 T01970073  RH  045%=      5-min Rain = 0
KBWS 242325Z 29005KT 20/07 A2989 RMK A01 T01950073  RH  046%=      5-min Rain = 0
KBWS 242330Z 28007KT 19/07 A2989 RMK A01 T01920074  RH  047%=      5-min Rain = 0
KBWS 242335Z 30005KT 19/07 A2989 RMK A01 T01890074  RH  048%=      5-min Rain = 0
KBWS 242340Z 28004KT 19/07 A2989 RMK A01 T01870074  RH  048%=      5-min Rain = 0
KBWS 242345Z 27006KT 19/08 A2989 RMK A01 T01890075  RH  048%=      5-min Rain = 0
KBWS 242350Z 28005KT 19/08 A2989 RMK A01 T01910075  RH  048%=      5-min Rain = 0
KBWS 242355Z 26006KT 19/08 A2989 RMK A01 T01920077  RH  048%=      5-min Rain = 0
KBWS 250000Z 25006KT 19/08 A2989 RMK A01 T01910075  RH  048%=      5-min Rain = 0
KBWS 250005Z 25004KT 19/08 A2989 RMK A01 T01870075  RH  049%=      5-min Rain = 0
KBWS 250010Z 25004KT 19/08 A2989 RMK A01 T01880079  RH  050%=      5-min Rain = 0
KBWS 250015Z 25005KT 19/08 A2989 RMK A01 T01920078  RH  048%=      5-min Rain = 0
KBWS 250020Z 27003KT 20/08 A2989 RMK A01 T01950080  RH  048%=      5-min Rain = 0
KBWS 250025Z 27004KT 20/08 A2989 RMK A01 T01950081  RH  048%=      5-min Rain = 0
KBWS 250030Z 25004KT 19/08 A2989 RMK A01 T01910079  RH  049%=      5-min Rain = 0
KBWS 250035Z 23004KT 19/08 A2989 RMK A01 T01880081  RH  051%=      5-min Rain = 0
KBWS 250040Z 24002KT 18/08 A2989 RMK A01 T01840080  RH  051%=      5-min Rain = 0
KBWS 250045Z 24002KT 18/08 A2989 RMK A01 T01820080  RH  052%=      5-min Rain = 0
KBWS 250050Z 21002KT 18/08 A2989 RMK A01 T01810084  RH  054%=      5-min Rain = 0
KBWS 250055Z 20002KT 18/09 A2989 RMK A01 T01810091  RH  056%=      5-min Rain = 0
KBWS 250100Z 19003KT 18/09 A2989 RMK A01 T01800091  RH  057%=      5-min Rain = 0
KBWS 250105Z 18002KT 18/09 A2989 RMK A01 T01780094  RH  059%=      5-min Rain = 0
KBWS 250110Z 20003KT 18/10 A2989 RMK A01 T01750096  RH  061%=      5-min Rain = 0
KBWS 250115Z 20003KT 17/10 A2989 RMK A01 T01720098  RH  063%=      5-min Rain = 0
KBWS 250120Z 20004KT 17/10 A2989 RMK A01 T01690099  RH  064%=      5-min Rain = 0
KBWS 250125Z 20004KT 17/10 A2989 RMK A01 T01650099  RH  066%=      5-min Rain = 0
KBWS 250130Z 20005KT 16/10 A2989 RMK A01 T01590097  RH  068%=      5-min Rain = 0
KBWS 250135Z 20006KT 15/10 A2989 RMK A01 T01540097  RH  070%=      5-min Rain = 0
KBWS 250140Z 20006KT 15/10 A2989 RMK A01 T01500097  RH  072%=      5-min Rain = 0
KBWS 250145Z 20006KT 15/10 A2989 RMK A01 T01470096  RH  073%=      5-min Rain = 0
KBWS 250150Z 20006KT 15/10 A2989 RMK A01 T01450096  RH  073%=      5-min Rain = 0
KBWS 250155Z 20007KT 15/10 A2989 RMK A01 T01450095  RH  073%=      5-min Rain = 0
KBWS 250200Z 20007KT 14/10 A299 RMK A01 T01430095  RH  074%=      5-min Rain = 0
KBWS 250205Z 20007KT 14/09 A299 RMK A01 T01410093  RH  074%=      5-min Rain = 0
KBWS 250210Z 20007KT 14/09 A299 RMK A01 T01400094  RH  075%=      5-min Rain = 0
KBWS 250215Z 20006KT 14/09 A299 RMK A01 T01390094  RH  075%=      5-min Rain = 0
KBWS 250220Z 19005KT 14/09 A299 RMK A01 T01390094  RH  076%=      5-min Rain = 0
KBWS 250225Z 19006KT 14/09 A299 RMK A01 T01390094  RH  075%=      5-min Rain = 0
KBWS 250230Z 19006KT 14/09 A299 RMK A01 T01390094  RH  076%=      5-min Rain = 0
KBWS 250235Z 19006KT 14/10 A299 RMK A01 T01370095  RH  077%=      5-min Rain = 0
KBWS 250240Z 20006KT 14/10 A2991 RMK A01 T01350096  RH  079%=      5-min Rain = 0
KBWS 250245Z 20006KT 13/10 A2991 RMK A01 T01330096  RH  080%=      5-min Rain = 0
KBWS 250250Z 19006KT 13/10 A2991 RMK A01 T01320096  RH  080%=      5-min Rain = 0
KBWS 250255Z 19006KT 13/10 A2991 RMK A01 T01310097  RH  081%=      5-min Rain = 0
KBWS 250300Z 20006KT 13/10 A2991 RMK A01 T01290097  RH  082%=      5-min Rain = 0
KBWS 250305Z 20006KT 13/10 A2992 RMK A01 T01280097  RH  083%=      5-min Rain = 0
KBWS 250310Z 20006KT 13/10 A2992 RMK A01 T01270098  RH  084%=      5-min Rain = 0
KBWS 250315Z 20006KT 13/10 A2992 RMK A01 T01270098  RH  084%=      5-min Rain = 0
KBWS 250320Z 20006KT 13/10 A2993 RMK A01 T01290099  RH  083%=      5-min Rain = 0
KBWS 250325Z 20006KT 13/10 A2993 RMK A01 T01280099  RH  084%=      5-min Rain = 0
KBWS 250330Z 20005KT 13/10 A2993 RMK A01 T01270099  RH  084%=      5-min Rain = 0
KBWS 250335Z 20005KT 13/10 A2993 RMK A01 T01250099  RH  085%=      5-min Rain = 0
KBWS 250340Z 20005KT 12/10 A2993 RMK A01 T01230098  RH  086%=      5-min Rain = 0
KBWS 250345Z 19006KT 12/10 A2993 RMK A01 T01220098  RH  087%=      5-min Rain = 0
KBWS 250350Z 19007KT 12/10 A2993 RMK A01 T01230099  RH  087%=      5-min Rain = 0
KBWS 250355Z 19008KT 13/10 A2993 RMK A01 T01270098  RH  084%=      5-min Rain = 0
KBWS 250400Z 19009KT 13/10 A2993 RMK A01 T01290097  RH  082%=      5-min Rain = 0
KBWS 250405Z 19009KT 13/10 A2993 RMK A01 T01280097  RH  083%=      5-min Rain = 0
KBWS 250410Z 19009KT 13/10 A2993 RMK A01 T01270098  RH  084%=      5-min Rain = 0
KBWS 250415Z 19008KT 13/10 A2993 RMK A01 T01250099  RH  085%=      5-min Rain = 0
KBWS 250420Z 19008KT 12/10 A2993 RMK A01 T01240100  RH  087%=      5-min Rain = 0
KBWS 250425Z 19007KT 12/10 A2993 RMK A01 T01220101  RH  088%=      5-min Rain = 0
KBWS 250430Z 19007KT 12/10 A2993 RMK A01 T01210101  RH  089%=      5-min Rain = 0
KBWS 250435Z 19007KT 12/10 A2993 RMK A01 T01200101  RH  090%=      5-min Rain = 0
KBWS 250440Z 19007KT 12/10 A2993 RMK A01 T01190101  RH  090%=      5-min Rain = 0
KBWS 250445Z 19008KT 12/10 A2993 RMK A01 T01190102  RH  091%=      5-min Rain = 0
KBWS 250450Z 19008KT 12/10 A2993 RMK A01 T01190103  RH  092%=      5-min Rain = 0
KBWS 250455Z 20007KT 12/10 A2993 RMK A01 T01180103  RH  092%=      5-min Rain = 0

Page generated in 0.0104 seconds.